Time;durP1;ratioP1;P1;durP2;ratioP2;P2;SDS_P1;SDS_P2;PMS_P1;PMS_P2;Temp;Humidity;BMP_temperature;BMP_pressure;BME280_temperature;BME280_humidity;BME280_pressure;Samples;Min_cycle;Max_cycle;Signal;HPM_P1;HPM_P2
2022/10/29 00:00:20;;;;;;;8.65;4.05;;;15.90;99.90;;;;;;5085215;28;20028;-40
2022/10/29 00:02:46;;;;;;;9.55;4.38;;;15.90;99.90;;;;;;5072885;28;20033;-40
2022/10/29 00:05:11;;;;;;;9.63;4.40;;;15.80;99.90;;;;;;5083841;28;20032;-40
2022/10/29 00:07:37;;;;;;;11.73;4.63;;;15.80;99.90;;;;;;5076822;28;20109;-40
2022/10/29 00:10:03;;;;;;;7.75;4.15;;;15.80;99.90;;;;;;5074641;28;20024;-38
2022/10/29 00:12:28;;;;;;;9.27;4.30;;;15.80;99.90;;;;;;5073012;28;20032;-39
2022/10/29 00:14:54;;;;;;;9.02;4.20;;;15.70;99.90;;;;;;5079790;28;20093;-40
2022/10/29 00:17:19;;;;;;;8.77;4.22;;;15.70;99.90;;;;;;5080758;28;20032;-39
2022/10/29 00:19:45;;;;;;;7.13;4.32;;;15.70;99.90;;;;;;5076456;28;20023;-39
2022/10/29 00:22:10;;;;;;;8.25;4.78;;;15.70;99.90;;;;;;5083682;28;20446;-39
2022/10/29 00:24:36;;;;;;;8.00;4.53;;;15.60;99.90;;;;;;5073582;28;20554;-37
2022/10/29 00:27:01;;;;;;;13.35;4.35;;;15.60;99.90;;;;;;5084137;28;20035;-39
2022/10/29 00:29:27;;;;;;;8.40;4.28;;;15.60;99.90;;;;;;5073849;28;20031;-40
2022/10/29 00:31:52;;;;;;;6.75;3.83;;;15.60;99.90;;;;;;5084564;28;20055;-41
2022/10/29 00:34:18;;;;;;;13.35;4.60;;;15.50;99.90;;;;;;5070930;28;20024;-39
2022/10/29 00:36:43;;;;;;;7.53;4.22;;;15.50;99.90;;;;;;5084833;28;20556;-38
2022/10/29 00:39:13;;;;;;;8.45;4.28;;;15.50;99.90;;;;;;5070876;28;20128;-39
2022/10/29 00:41:39;;;;;;;11.07;4.75;;;15.50;99.90;;;;;;5085340;28;20501;-39
2022/10/29 00:44:29;;;;;;;9.60;4.28;;;15.50;99.90;;;;;;5074147;28;20071;-39
2022/10/29 00:47:03;;;;;;;9.45;4.10;;;15.50;99.90;;;;;;5052518;28;20033;-40
2022/10/29 00:49:30;;;;;;;10.73;4.53;;;15.50;99.90;;;;;;5076639;28;20028;-38
2022/10/29 00:51:57;;;;;;;9.45;3.95;;;15.40;99.90;;;;;;5063677;28;20808;-37
2022/10/29 00:54:23;;;;;;;9.35;4.63;;;15.40;99.90;;;;;;5074579;28;20035;-37
2022/10/29 00:56:54;;;;;;;8.05;4.10;;;15.40;99.90;;;;;;5066706;28;20028;-40
2022/10/29 00:59:19;;;;;;;12.25;4.30;;;15.40;99.90;;;;;;5071623;28;20081;-40
2022/10/29 01:01:47;;;;;;;11.80;5.18;;;15.40;99.90;;;;;;5068725;28;20036;-37
2022/10/29 01:04:13;;;;;;;10.00;4.43;;;15.40;99.90;;;;;;5070067;28;20374;-39
2022/10/29 01:06:41;;;;;;;9.60;4.18;;;15.40;99.90;;;;;;5070400;28;20851;-40
2022/10/29 01:09:06;;;;;;;9.00;4.20;;;15.30;99.90;;;;;;5068170;28;20059;-40
2022/10/29 01:11:44;;;;;;;10.75;4.30;;;15.30;99.90;;;;;;5065681;28;20131;-36
2022/10/29 01:14:45;;;;;;;12.38;4.20;;;15.30;99.90;;;;;;5065697;28;20021;-40
2022/10/29 01:17:29;;;;;;;8.43;4.53;;;15.30;99.90;;;;;;5068764;28;20038;-39
2022/10/29 01:20:15;;;;;;;9.55;4.72;;;15.30;99.90;;;;;;5071295;28;20107;-38
2022/10/29 01:23:22;;;;;;;11.00;4.90;;;15.20;99.90;;;;;;5065871;28;20035;-38
2022/10/29 01:26:17;;;;;;;13.43;4.88;;;15.10;99.90;;;;;;5037053;28;20100;-37
2022/10/29 01:29:14;;;;;;;9.27;4.55;;;15.10;99.90;;;;;;5063018;28;20395;-40
2022/10/29 01:32:06;;;;;;;10.80;4.72;;;15.10;99.90;;;;;;5074995;28;20063;-40
2022/10/29 01:35:05;;;;;;;9.20;4.53;;;15.10;99.90;;;;;;5064409;28;20030;-39
2022/10/29 01:37:55;;;;;;;9.77;4.85;;;15.00;99.90;;;;;;5075965;28;20771;-37
2022/10/29 01:40:30;;;;;;;9.05;4.43;;;15.00;99.90;;;;;;5077644;28;20035;-39
2022/10/29 01:43:01;;;;;;;8.30;4.40;;;15.00;99.90;;;;;;5077607;28;20534;-39
2022/10/29 01:45:38;;;;;;;10.60;4.53;;;15.00;99.90;;;;;;5077497;28;20017;-38
2022/10/29 01:48:18;;;;;;;10.48;4.68;;;14.90;99.90;;;;;;5076880;28;20036;-37
2022/10/29 01:50:48;;;;;;;9.02;4.40;;;14.90;99.90;;;;;;5077552;28;20040;-39
2022/10/29 01:53:15;;;;;;;15.18;5.22;;;14.90;99.90;;;;;;5076861;28;20773;-38
2022/10/29 01:55:40;;;;;;;8.88;4.30;;;14.90;99.90;;;;;;5078407;28;20677;-40
2022/10/29 01:58:07;;;;;;;7.00;4.07;;;14.80;99.90;;;;;;5075146;28;20098;-38
2022/10/29 02:00:49;;;;;;;9.65;5.00;;;14.80;99.90;;;;;;5082121;28;20495;-39
2022/10/29 02:03:20;;;;;;;9.00;4.53;;;14.80;99.90;;;;;;5074014;28;20020;-40
2022/10/29 02:06:10;;;;;;;8.43;4.30;;;14.80;99.90;;;;;;5081863;28;20052;-37
2022/10/29 02:09:11;;;;;;;8.02;4.78;;;14.80;99.90;;;;;;5076381;28;20032;-39
2022/10/29 02:12:07;;;;;;;8.25;4.80;;;14.80;99.90;;;;;;5056983;28;20059;-37
2022/10/29 02:14:37;;;;;;;8.50;4.55;;;14.70;99.90;;;;;;5082924;28;20035;-39
2022/10/29 02:17:04;;;;;;;9.90;5.38;;;14.70;99.90;;;;;;5073364;28;20163;-39
2022/10/29 02:19:31;;;;;;;10.18;4.78;;;14.70;99.90;;;;;;5080310;28;20118;-38
2022/10/29 02:21:59;;;;;;;10.35;4.57;;;14.70;99.90;;;;;;5075854;28;20020;-41
2022/10/29 02:24:25;;;;;;;8.02;4.57;;;14.70;99.90;;;;;;5077452;28;20823;-39
2022/10/29 02:26:51;;;;;;;8.20;4.55;;;14.60;99.90;;;;;;5078144;28;20015;-40
2022/10/29 02:29:17;;;;;;;10.40;5.30;;;14.60;99.90;;;;;;5075395;28;20422;-41
2022/10/29 02:31:43;;;;;;;8.80;4.85;;;14.60;99.90;;;;;;5079417;28;20044;-38
2022/10/29 02:34:08;;;;;;;9.90;4.97;;;14.60;99.90;;;;;;5072883;28;20089;-38
2022/10/29 02:36:37;;;;;;;13.02;4.53;;;14.60;99.90;;;;;;5081647;28;20028;-41
2022/10/29 02:39:02;;;;;;;11.80;4.80;;;14.60;99.90;;;;;;5071088;28;20020;-37
2022/10/29 02:41:28;;;;;;;10.23;4.70;;;14.60;99.90;;;;;;5081045;28;20118;-39
2022/10/29 02:43:53;;;;;;;13.48;4.88;;;14.60;99.90;;;;;;5071006;28;20024;-41
2022/10/29 02:46:21;;;;;;;10.50;4.75;;;14.60;99.90;;;;;;5082584;28;20031;-40
2022/10/29 02:48:47;;;;;;;10.23;4.68;;;14.70;99.90;;;;;;5070580;28;20047;-37
2022/10/29 02:51:13;;;;;;;10.32;4.50;;;14.60;99.90;;;;;;5082352;28;20048;-40
2022/10/29 02:53:39;;;;;;;8.85;4.72;;;14.60;99.90;;;;;;5070842;28;20126;-37
2022/10/29 02:56:06;;;;;;;9.23;4.55;;;14.60;99.90;;;;;;5083458;28;20475;-37
2022/10/29 02:58:32;;;;;;;11.10;5.35;;;14.60;99.90;;;;;;5073967;28;20023;-45
2022/10/29 03:00:57;;;;;;;11.98;5.13;;;14.60;99.90;;;;;;5084858;28;20032;-40
2022/10/29 03:03:23;;;;;;;10.43;5.60;;;14.60;99.90;;;;;;5078557;28;20361;-35
2022/10/29 03:05:49;;;;;;;8.98;5.22;;;14.60;99.90;;;;;;5082175;28;20127;-38
2022/10/29 03:08:15;;;;;;;9.63;5.10;;;14.60;99.90;;;;;;5080876;28;20020;-40
2022/10/29 03:10:40;;;;;;;8.75;5.30;;;14.60;99.90;;;;;;5069818;28;20043;-40
2022/10/29 03:13:06;;;;;;;9.98;5.28;;;14.60;99.90;;;;;;5068087;28;20467;-37
2022/10/29 03:15:31;;;;;;;10.40;5.35;;;14.60;99.90;;;;;;5076197;28;20121;-40
2022/10/29 03:17:57;;;;;;;9.77;5.43;;;14.60;99.90;;;;;;5067220;28;20024;-40
2022/10/29 03:20:22;;;;;;;10.32;5.28;;;14.60;99.90;;;;;;5076323;28;20060;-39
2022/10/29 03:22:48;;;;;;;11.63;5.53;;;14.60;99.90;;;;;;5067335;28;20036;-41
2022/10/29 03:25:13;;;;;;;10.20;5.30;;;14.60;99.90;;;;;;5077531;28;20025;-40
2022/10/29 03:27:42;;;;;;;12.05;5.63;;;14.60;99.90;;;;;;5066279;28;20030;-39
2022/10/29 03:30:10;;;;;;;9.98;5.60;;;14.60;99.90;;;;;;5078500;28;20116;-39
2022/10/29 03:32:40;;;;;;;9.88;5.70;;;14.70;99.90;;;;;;5066023;28;20738;-40
2022/10/29 03:35:06;;;;;;;8.60;5.50;;;14.70;99.90;;;;;;5078431;28;20028;-38
2022/10/29 03:37:32;;;;;;;10.05;5.82;;;14.70;99.90;;;;;;5066099;28;20119;-39
2022/10/29 03:39:57;;;;;;;9.18;5.65;;;14.70;99.90;;;;;;5077175;28;20058;-39
2022/10/29 03:42:23;;;;;;;10.98;5.70;;;14.70;99.90;;;;;;5066494;28;20024;-40
2022/10/29 03:44:48;;;;;;;10.27;5.43;;;14.60;99.90;;;;;;5073684;28;20020;-39
2022/10/29 03:47:14;;;;;;;9.65;5.80;;;14.60;99.90;;;;;;5068922;28;20383;-39
2022/10/29 03:49:39;;;;;;;8.80;5.72;;;14.60;99.90;;;;;;5071096;28;20097;-39
2022/10/29 03:52:05;;;;;;;9.05;5.32;;;14.60;99.90;;;;;;5072377;28;20697;-41
2022/10/29 03:54:30;;;;;;;7.18;5.72;;;14.60;99.90;;;;;;5067236;28;20024;-40
2022/10/29 03:56:56;;;;;;;9.07;6.22;;;14.60;99.90;;;;;;5075090;28;20842;-39
2022/10/29 03:59:21;;;;;;;12.48;7.88;;;14.60;99.90;;;;;;5066114;28;20012;-40
2022/10/29 04:01:47;;;;;;;10.65;6.53;;;14.60;99.90;;;;;;5076174;28;20032;-37
2022/10/29 04:04:12;;;;;;;9.93;6.47;;;14.60;99.90;;;;;;5066198;28;20028;-39
2022/10/29 04:06:38;;;;;;;12.02;6.75;;;14.60;99.90;;;;;;5076543;28;20135;-38
2022/10/29 04:09:07;;;;;;;11.73;7.18;;;14.60;99.90;;;;;;5063760;28;20078;-39
2022/10/29 04:11:32;;;;;;;12.70;7.65;;;14.70;99.90;;;;;;5078061;28;20032;-39
2022/10/29 04:13:58;;;;;;;10.80;7.18;;;14.70;99.90;;;;;;5065478;28;20363;-40
2022/10/29 04:16:23;;;;;;;12.02;7.43;;;14.70;99.90;;;;;;5076975;28;20040;-40
2022/10/29 04:18:49;;;;;;;13.43;6.85;;;14.80;99.90;;;;;;5065559;28;20094;-39
2022/10/29 04:21:16;;;;;;;10.00;7.03;;;14.80;99.90;;;;;;5074997;28;20023;-40
2022/10/29 04:23:42;;;;;;;12.73;7.05;;;14.80;99.90;;;;;;5066384;28;20033;-40
2022/10/29 04:26:07;;;;;;;12.77;7.50;;;14.80;99.90;;;;;;5072293;28;20035;-40
2022/10/29 04:28:33;;;;;;;13.98;7.25;;;14.80;99.90;;;;;;5070097;28;20511;-39
2022/10/29 04:31:10;;;;;;;11.88;8.27;;;14.80;99.90;;;;;;5069042;28;20613;-40
2022/10/29 04:33:35;;;;;;;12.80;7.07;;;14.90;99.90;;;;;;5070773;28;20520;-38
2022/10/29 04:36:01;;;;;;;10.68;7.47;;;14.90;99.90;;;;;;5068384;28;20077;-40
2022/10/29 04:38:27;;;;;;;11.55;7.93;;;14.90;99.90;;;;;;5072343;28;20385;-40
2022/10/29 04:40:57;;;;;;;12.35;8.20;;;14.90;99.90;;;;;;5065837;28;20546;-41
2022/10/29 04:43:22;;;;;;;13.50;8.70;;;14.90;99.90;;;;;;5073198;28;20379;-39
2022/10/29 04:45:52;;;;;;;9.45;7.60;;;14.80;99.90;;;;;;5082909;28;20017;-40
2022/10/29 04:48:19;;;;;;;10.60;8.20;;;14.90;99.90;;;;;;5072891;28;20460;-40
2022/10/29 04:50:45;;;;;;;13.18;8.13;;;14.80;99.90;;;;;;5083218;28;20043;-42
2022/10/29 04:53:10;;;;;;;13.73;8.70;;;14.80;99.90;;;;;;5072907;28;20486;-39
2022/10/29 04:55:37;;;;;;;13.05;8.52;;;14.80;99.90;;;;;;5084981;28;20032;-39
2022/10/29 04:58:04;;;;;;;14.00;9.20;;;14.80;99.90;;;;;;5071248;28;20035;-41
2022/10/29 05:00:30;;;;;;;14.30;8.80;;;14.80;99.90;;;;;;5084104;28;20085;-40
2022/10/29 05:02:55;;;;;;;12.70;8.55;;;14.70;99.90;;;;;;5071472;28;20032;-35
2022/10/29 05:05:21;;;;;;;12.15;8.80;;;14.70;99.90;;;;;;5062968;28;20498;-38
2022/10/29 05:07:47;;;;;;;14.77;8.70;;;14.70;99.90;;;;;;5073773;28;20035;-38
2022/10/29 05:10:12;;;;;;;14.10;8.88;;;14.70;99.90;;;;;;5070359;28;20031;-39
2022/10/29 05:12:38;;;;;;;10.98;7.57;;;14.70;99.90;;;;;;5076225;28;20436;-39
2022/10/29 05:15:05;;;;;;;16.20;8.38;;;14.80;99.90;;;;;;5079878;28;20032;-39
2022/10/29 05:17:34;;;;;;;11.43;7.38;;;14.80;99.90;;;;;;5080119;28;20118;-39
2022/10/29 05:20:05;;;;;;;11.98;8.43;;;14.80;99.90;;;;;;5071627;28;20052;-39
2022/10/29 05:22:31;;;;;;;13.40;8.65;;;14.80;99.90;;;;;;5067564;28;20411;-39
2022/10/29 05:24:56;;;;;;;11.38;7.78;;;14.80;99.90;;;;;;5073523;28;20016;-38
2022/10/29 05:27:22;;;;;;;13.23;8.32;;;14.80;99.90;;;;;;5063700;28;20544;-39
2022/10/29 05:29:48;;;;;;;16.08;8.95;;;14.80;99.90;;;;;;5075059;28;20028;-39
2022/10/29 05:32:13;;;;;;;12.32;8.45;;;14.90;99.90;;;;;;5064745;28;20052;-39
2022/10/29 05:34:39;;;;;;;10.85;8.95;;;14.90;99.90;;;;;;5073735;28;20020;-40
2022/10/29 05:37:04;;;;;;;11.98;8.35;;;14.90;99.90;;;;;;5083958;28;20050;-38
2022/10/29 05:39:30;;;;;;;15.15;9.43;;;14.90;99.90;;;;;;5070524;28;20491;-39
2022/10/29 05:41:55;;;;;;;13.73;8.65;;;14.90;99.90;;;;;;5084074;28;20067;-39
2022/10/29 05:44:21;;;;;;;12.05;8.13;;;14.90;99.90;;;;;;5071120;28;20032;-36
2022/10/29 05:46:49;;;;;;;11.82;8.27;;;14.90;99.90;;;;;;5083733;28;20133;-38
2022/10/29 05:49:15;;;;;;;10.18;8.38;;;14.90;99.90;;;;;;5072890;28;20033;-41
2022/10/29 05:51:40;;;;;;;14.18;8.95;;;14.90;99.90;;;;;;5082748;28;20024;-37
2022/10/29 05:54:06;;;;;;;11.80;8.48;;;14.90;99.90;;;;;;5075350;28;20527;-39
2022/10/29 05:56:31;;;;;;;12.30;8.60;;;14.90;99.90;;;;;;5079565;28;20115;-38
2022/10/29 05:58:57;;;;;;;16.23;8.82;;;15.00;99.90;;;;;;5078550;28;20563;-40
2022/10/29 06:01:23;;;;;;;12.13;8.45;;;15.00;99.90;;;;;;5075624;28;20039;-40
2022/10/29 06:03:48;;;;;;;12.73;8.07;;;15.00;99.90;;;;;;5081057;28;20012;-39
2022/10/29 06:06:14;;;;;;;14.98;8.68;;;15.00;99.90;;;;;;5073232;28;20032;-39
2022/10/29 06:08:39;;;;;;;11.43;8.38;;;15.10;99.90;;;;;;5081951;28;20051;-38
2022/10/29 06:11:05;;;;;;;14.65;9.45;;;15.10;99.90;;;;;;5065668;28;20029;-39
2022/10/29 06:13:30;;;;;;;13.13;9.00;;;15.10;99.90;;;;;;5064263;28;20107;-38
2022/10/29 06:15:58;;;;;;;11.40;8.60;;;15.10;99.90;;;;;;5074649;28;20078;-40
2022/10/29 06:18:24;;;;;;;10.73;8.15;;;15.10;99.90;;;;;;5063598;28;20254;-40
2022/10/29 06:20:50;;;;;;;14.48;8.52;;;15.20;99.90;;;;;;5075867;28;20032;-39
2022/10/29 06:23:15;;;;;;;14.25;9.13;;;15.10;99.90;;;;;;5062476;28;20054;-40
2022/10/29 06:25:41;;;;;;;10.50;8.02;;;15.10;99.90;;;;;;5075874;28;20625;-39
2022/10/29 06:28:10;;;;;;;11.77;8.20;;;15.10;99.90;;;;;;5062921;28;20028;-39
2022/10/29 06:30:36;;;;;;;15.07;9.45;;;15.20;99.90;;;;;;5072759;28;20028;-40
2022/10/29 06:33:03;;;;;;;14.63;9.50;;;15.20;99.90;;;;;;5067272;28;20048;-40
2022/10/29 06:35:30;;;;;;;12.52;8.73;;;15.20;99.90;;;;;;5075128;28;20418;-40
2022/10/29 06:37:55;;;;;;;14.27;9.93;;;15.20;99.90;;;;;;5071229;28;20042;-37
2022/10/29 06:40:21;;;;;;;14.52;9.55;;;15.30;99.90;;;;;;5071662;28;20542;-38
2022/10/29 06:42:46;;;;;;;14.38;8.93;;;15.30;99.90;;;;;;5074275;28;20042;-38
2022/10/29 06:45:13;;;;;;;14.13;9.13;;;15.30;99.90;;;;;;5069040;28;20376;-40
2022/10/29 06:47:39;;;;;;;11.05;8.43;;;15.30;99.90;;;;;;5076807;28;20028;-40
2022/10/29 06:50:06;;;;;;;13.85;8.90;;;15.30;99.90;;;;;;5068102;28;20383;-42
2022/10/29 06:52:32;;;;;;;11.63;9.00;;;15.30;99.90;;;;;;5078624;28;20158;-40
2022/10/29 06:54:57;;;;;;;11.02;8.52;;;15.40;99.90;;;;;;5068275;28;20563;-40
2022/10/29 06:57:23;;;;;;;14.00;9.38;;;15.40;99.90;;;;;;5077418;28;20053;-39
2022/10/29 06:59:49;;;;;;;11.57;9.30;;;15.40;99.90;;;;;;5067338;28;20142;-40
2022/10/29 07:02:17;;;;;;;12.98;9.38;;;15.40;99.90;;;;;;5079400;28;20496;-40
2022/10/29 07:04:43;;;;;;;14.70;9.27;;;15.50;99.90;;;;;;5066958;28;20035;-41
2022/10/29 07:07:09;;;;;;;11.68;9.10;;;15.50;99.90;;;;;;5078638;28;20032;-39
2022/10/29 07:09:34;;;;;;;15.35;9.93;;;15.50;99.90;;;;;;5066679;28;20032;-39
2022/10/29 07:12:00;;;;;;;13.40;9.80;;;15.50;99.90;;;;;;5068136;28;20036;-40
2022/10/29 07:14:25;;;;;;;12.50;9.60;;;15.50;99.90;;;;;;5084652;28;20122;-40
2022/10/29 07:16:52;;;;;;;17.50;11.57;;;15.50;99.90;;;;;;5078284;28;20483;-40
2022/10/29 07:19:17;;;;;;;13.02;9.73;;;15.60;99.90;;;;;;5080938;28;20372;-40
2022/10/29 07:21:43;;;;;;;15.68;10.98;;;15.60;99.90;;;;;;5078914;28;20518;-40
2022/10/29 07:24:11;;;;;;;15.73;11.32;;;15.60;99.90;;;;;;5073718;28;20020;-40
2022/10/29 07:26:37;;;;;;;18.00;10.30;;;15.60;99.90;;;;;;5068599;28;20047;-38
2022/10/29 07:29:03;;;;;;;12.60;9.63;;;15.60;99.90;;;;;;5079278;28;20024;-39
2022/10/29 07:31:29;;;;;;;12.05;9.77;;;15.70;99.90;;;;;;5083215;28;20533;-40
2022/10/29 07:33:56;;;;;;;13.93;9.00;;;15.70;99.90;;;;;;5074172;28;20035;-38
2022/10/29 07:36:21;;;;;;;15.23;9.93;;;15.70;99.90;;;;;;5080102;28;20063;-39
2022/10/29 07:38:47;;;;;;;13.43;10.45;;;15.80;99.90;;;;;;5070254;28;20108;-40
2022/10/29 07:41:13;;;;;;;15.10;10.88;;;15.80;99.90;;;;;;5068681;28;20032;-39
2022/10/29 07:43:38;;;;;;;14.32;11.65;;;15.80;99.90;;;;;;5071540;28;20090;-38
2022/10/29 07:46:04;;;;;;;15.38;11.90;;;15.90;99.90;;;;;;5068166;28;20058;-38
2022/10/29 07:48:30;;;;;;;16.85;12.48;;;16.00;99.90;;;;;;5070272;28;20126;-38
2022/10/29 07:51:00;;;;;;;17.38;12.68;;;16.00;99.90;;;;;;5066945;28;20090;-40
2022/10/29 07:53:26;;;;;;;18.35;13.30;;;16.00;99.90;;;;;;5066477;28;20392;-39
2022/10/29 07:55:53;;;;;;;15.80;12.25;;;16.00;99.90;;;;;;5068168;28;20012;-40
2022/10/29 07:58:19;;;;;;;16.20;11.77;;;16.00;99.90;;;;;;5076671;28;20039;-41
2022/10/29 08:00:44;;;;;;;14.75;11.15;;;16.00;99.90;;;;;;5075307;28;20017;-40
2022/10/29 08:03:11;;;;;;;17.02;11.35;;;16.00;99.90;;;;;;5068076;28;20032;-39
2022/10/29 08:05:37;;;;;;;13.57;11.05;;;16.00;99.90;;;;;;5066655;28;20028;-37
2022/10/29 08:08:03;;;;;;;16.17;10.50;;;16.00;99.90;;;;;;5076457;28;20022;-41
2022/10/29 08:10:30;;;;;;;13.32;9.90;;;16.00;99.90;;;;;;5068949;28;20048;-38
2022/10/29 08:12:57;;;;;;;14.35;9.77;;;16.00;99.90;;;;;;5075601;28;20044;-37
2022/10/29 08:15:25;;;;;;;13.73;9.27;;;16.10;99.90;;;;;;5079519;28;20063;-39
2022/10/29 08:17:54;;;;;;;13.52;9.55;;;16.10;99.90;;;;;;5083270;28;20027;-39
2022/10/29 08:20:21;;;;;;;14.40;9.30;;;16.20;99.90;;;;;;5074505;28;20035;-40
2022/10/29 08:22:49;;;;;;;14.05;9.75;;;16.30;99.90;;;;;;5083349;28;20024;-39
2022/10/29 08:25:16;;;;;;;14.05;10.20;;;16.40;99.90;;;;;;5083400;28;20220;-41
2022/10/29 08:27:42;;;;;;;13.48;9.15;;;16.40;99.90;;;;;;5084395;28;20020;-40
2022/10/29 08:30:09;;;;;;;14.63;9.45;;;16.50;99.90;;;;;;5082761;28;20051;-40
2022/10/29 08:32:35;;;;;;;13.38;8.85;;;16.50;99.90;;;;;;5076843;28;20059;-40
2022/10/29 08:35:01;;;;;;;13.95;9.23;;;16.60;99.90;;;;;;5068247;28;20017;-40
2022/10/29 08:37:28;;;;;;;13.93;9.05;;;16.60;99.90;;;;;;5069612;28;20032;-39
2022/10/29 08:39:54;;;;;;;12.88;8.50;;;16.60;99.90;;;;;;5082917;28;20399;-40
2022/10/29 08:42:49;;;;;;;12.93;9.40;;;16.60;99.90;;;;;;5083053;28;20571;-40
2022/10/29 08:45:29;;;;;;;15.55;8.02;;;16.70;99.90;;;;;;5083174;28;20092;-40
2022/10/29 08:48:08;;;;;;;13.00;8.18;;;16.70;99.90;;;;;;5072150;28;20024;-39
2022/10/29 08:50:40;;;;;;;11.05;8.20;;;16.80;99.90;;;;;;5082476;28;20136;-41
2022/10/29 08:53:15;;;;;;;10.77;7.72;;;16.80;99.90;;;;;;5084843;28;20088;-36
2022/10/29 08:55:41;;;;;;;13.43;8.10;;;16.90;99.90;;;;;;5083535;28;20084;-40
2022/10/29 08:58:46;;;;;;;12.50;7.70;;;16.90;99.90;;;;;;5083434;28;20048;-38
2022/10/29 09:01:12;;;;;;;9.95;7.50;;;16.90;99.90;;;;;;5079639;28;20028;-39
2022/10/29 09:03:41;;;;;;;10.95;7.72;;;16.90;99.90;;;;;;5083534;28;20035;-40
2022/10/29 09:06:12;;;;;;;12.75;8.35;;;17.00;99.90;;;;;;5074540;28;20012;-40
2022/10/29 09:08:58;;;;;;;11.60;7.97;;;17.00;99.90;;;;;;5084240;28;20028;-38
2022/10/29 09:11:47;;;;;;;8.60;7.10;;;17.00;99.90;;;;;;5071358;28;20194;-40
2022/10/29 09:14:40;;;;;;;10.20;7.25;;;17.00;99.90;;;;;;5065374;28;20035;-38
2022/10/29 09:17:11;;;;;;;;;;;17.10;99.90;;;;;;5069240;28;20085;-38
2022/10/29 09:20:07;;;;;;;8.95;6.70;;;17.10;99.90;;;;;;5077569;28;19904;-38
2022/10/29 09:22:57;;;;;;;8.68;7.35;;;17.20;99.90;;;;;;5022624;28;20086;-40
2022/10/29 09:25:29;;;;;;;9.88;7.30;;;17.20;99.90;;;;;;5071525;28;20091;-41
2022/10/29 09:28:15;;;;;;;9.63;7.05;;;17.40;99.90;;;;;;5075841;28;20753;-40
2022/10/29 09:30:51;;;;;;;9.85;7.18;;;17.40;99.90;;;;;;5075231;28;20024;-40
2022/10/29 09:33:21;;;;;;;10.07;7.03;;;17.50;99.90;;;;;;5067990;28;20215;-40
2022/10/29 09:35:52;;;;;;;11.35;8.27;;;17.60;99.90;;;;;;5072286;28;20020;-40
2022/10/29 09:38:22;;;;;;;9.23;7.00;;;17.70;99.90;;;;;;5061649;28;20016;-38
2022/10/29 09:40:48;;;;;;;11.43;7.30;;;17.80;99.90;;;;;;5067213;28;20062;-40
2022/10/29 09:43:22;;;;;;;9.90;7.07;;;17.80;99.90;;;;;;5067309;28;20434;-39
2022/10/29 09:46:20;;;;;;;10.52;7.70;;;17.80;99.90;;;;;;5070689;28;20134;-40
2022/10/29 09:49:09;;;;;;;11.45;7.95;;;17.90;99.90;;;;;;5068586;28;20455;-41
2022/10/29 09:51:56;;;;;;;11.30;7.55;;;17.90;99.90;;;;;;5067468;28;20140;-39
2022/10/29 09:54:27;;;;;;;10.55;7.65;;;17.90;99.90;;;;;;5078694;28;20028;-40
2022/10/29 09:56:53;;;;;;;13.63;7.05;;;18.00;99.90;;;;;;5073372;28;20479;-42
2022/10/29 09:59:33;;;;;;;11.98;7.53;;;18.00;99.90;;;;;;5071720;28;20031;-39
2022/10/29 10:01:59;;;;;;;13.80;7.80;;;18.00;99.90;;;;;;5067573;28;20036;-40
2022/10/29 10:04:33;;;;;;;13.95;8.00;;;18.00;99.90;;;;;;5070812;28;20383;-40
2022/10/29 10:07:08;;;;;;;11.27;8.15;;;18.10;99.90;;;;;;5069061;28;20039;-40
2022/10/29 10:09:54;;;;;;;11.15;8.00;;;18.10;99.90;;;;;;5073397;28;20016;-40
2022/10/29 10:12:27;;;;;;;12.00;7.53;;;18.10;99.90;;;;;;5071277;28;20039;-41
2022/10/29 10:15:02;;;;;;;;;;;18.10;99.90;;;;;;5066360;28;20121;-39
2022/10/29 10:17:27;;;;;;;12.05;7.60;;;18.20;99.90;;;;;;5070075;28;20846;-41
2022/10/29 10:19:53;;;;;;;11.60;8.02;;;18.20;99.90;;;;;;5065096;28;20028;-39
2022/10/29 10:22:20;;;;;;;10.88;6.93;;;18.20;99.90;;;;;;5074456;28;20840;-40
2022/10/29 10:24:47;;;;;;;12.25;8.38;;;18.30;99.90;;;;;;5072019;28;20028;-38
2022/10/29 10:27:18;;;;;;;8.77;7.25;;;18.20;99.90;;;;;;5072807;28;20016;-40
2022/10/29 10:30:04;;;;;;;10.00;8.23;;;18.30;99.90;;;;;;5063091;28;20048;-40
2022/10/29 10:32:30;;;;;;;11.27;7.88;;;18.30;99.90;;;;;;5069409;28;20063;-40
2022/10/29 10:34:56;;;;;;;10.23;8.10;;;18.30;99.90;;;;;;5067104;28;20012;-41
2022/10/29 10:37:22;;;;;;;9.60;7.13;;;18.40;99.90;;;;;;5070134;28;20788;-42
2022/10/29 10:40:02;;;;;;;9.90;7.50;;;18.40;99.90;;;;;;5075156;28;20627;-40
2022/10/29 10:42:33;;;;;;;10.30;7.90;;;18.50;99.90;;;;;;5067361;28;20033;-40
2022/10/29 10:45:02;;;;;;;12.88;8.30;;;18.60;99.90;;;;;;5078207;28;20027;-41
2022/10/29 10:47:32;;;;;;;11.68;7.97;;;18.60;99.90;;;;;;5068954;28;20032;-38
2022/10/29 10:50:17;;;;;;;11.40;7.78;;;18.70;99.90;;;;;;5077478;28;20021;-38
2022/10/29 10:52:44;;;;;;;11.15;7.38;;;18.70;99.90;;;;;;5067803;28;20085;-39
2022/10/29 10:55:24;;;;;;;8.77;6.53;;;18.80;99.90;;;;;;5081308;28;20402;-42
2022/10/29 10:58:22;;;;;;;11.23;7.55;;;18.90;99.90;;;;;;5067198;28;20024;-40
2022/10/29 11:00:55;;;;;;;8.98;6.65;;;19.00;99.90;;;;;;5074280;28;20024;-40
2022/10/29 11:03:22;;;;;;;;;;;19.10;99.90;;;;;;5063434;28;20028;-40
2022/10/29 11:06:11;;;;;;;11.63;7.30;;;19.20;99.90;;;;;;5072151;28;19954;-38
2022/10/29 11:08:49;;;;;;;11.88;6.53;;;19.20;99.90;;;;;;5067521;28;20032;-39
2022/10/29 11:11:19;;;;;;;9.85;6.38;;;19.30;99.90;;;;;;5070902;28;20032;-38
2022/10/29 11:13:46;;;;;;;9.85;6.03;;;19.30;99.90;;;;;;5066181;28;20033;-39
2022/10/29 11:16:17;;;;;;;8.55;6.10;;;19.40;99.90;;;;;;5074941;28;20029;-41
2022/10/29 11:19:18;;;;;;;5.57;4.88;;;19.40;99.90;;;;;;5075580;28;20048;-40
2022/10/29 11:22:02;;;;;;;9.13;5.20;;;19.50;99.90;;;;;;5038300;28;20119;-39
2022/10/29 11:24:54;;;;;;;10.48;5.80;;;19.60;99.90;;;;;;5083299;28;20035;-41
2022/10/29 11:27:39;;;;;;;9.13;6.50;;;19.60;99.90;;;;;;5074240;28;20447;-40
2022/10/29 11:30:14;;;;;;;6.65;5.32;;;19.70;99.90;;;;;;5076380;28;20064;-39
2022/10/29 11:32:57;;;;;;;8.20;5.85;;;19.70;99.90;;;;;;5073445;28;20060;-41
2022/10/29 11:35:37;;;;;;;10.55;6.50;;;19.70;99.90;;;;;;5076611;28;20028;-39
2022/10/29 11:38:15;;;;;;;9.82;6.18;;;19.80;99.90;;;;;;5076080;28;20021;-40
2022/10/29 11:40:46;;;;;;;8.07;5.68;;;19.80;99.90;;;;;;5070927;28;20129;-40
2022/10/29 11:43:13;;;;;;;10.52;5.75;;;19.80;99.90;;;;;;5071478;28;20127;-40
2022/10/29 11:46:03;;;;;;;7.63;5.78;;;19.80;99.90;;;;;;5072855;28;20054;-40
2022/10/29 11:48:49;;;;;;;7.78;4.85;;;19.70;99.90;;;;;;5073990;28;20020;-39
2022/10/29 11:51:42;;;;;;;7.53;5.00;;;19.70;99.90;;;;;;5072454;28;20434;-39
2022/10/29 11:54:21;;;;;;;6.72;4.82;;;19.70;99.90;;;;;;5073369;28;20028;-39
2022/10/29 11:56:56;;;;;;;6.38;4.70;;;19.70;99.90;;;;;;5074016;28;20479;-40
2022/10/29 11:59:34;;;;;;;6.90;4.82;;;19.70;99.90;;;;;;5072534;28;20028;-39
2022/10/29 12:02:19;;;;;;;5.97;5.00;;;19.80;99.90;;;;;;5080147;28;20020;-40
2022/10/29 12:04:53;;;;;;;6.60;4.72;;;19.90;99.90;;;;;;5064899;28;20043;-40
2022/10/29 12:07:41;;;;;;;5.57;4.32;;;19.90;99.90;;;;;;5073618;28;20024;-39
2022/10/29 12:10:28;;;;;;;4.40;3.63;;;19.90;99.90;;;;;;5081276;28;20032;-38
2022/10/29 12:13:15;;;;;;;6.80;4.20;;;20.00;99.90;;;;;;5078324;28;20837;-41
2022/10/29 12:16:13;;;;;;;6.60;4.38;;;20.10;99.90;;;;;;5068692;28;20490;-41
2022/10/29 12:18:55;;;;;;;6.68;3.65;;;20.20;99.90;;;;;;5075457;28;20028;-39
2022/10/29 12:21:29;;;;;;;6.97;3.85;;;20.30;99.90;;;;;;5081620;28;20016;-38
2022/10/29 12:24:13;;;;;;;4.60;3.25;;;20.40;99.90;;;;;;5085182;28;20036;-39
2022/10/29 12:26:44;;;;;;;5.50;3.40;;;20.40;99.90;;;;;;5084147;28;20027;-38
2022/10/29 12:29:23;;;;;;;5.72;3.40;;;20.50;99.90;;;;;;5084168;28;20111;-39
2022/10/29 12:32:07;;;;;;;6.15;3.47;;;20.50;99.90;;;;;;5081283;28;20482;-40
2022/10/29 12:34:43;;;;;;;4.95;3.47;;;20.50;99.90;;;;;;5078713;28;20056;-40
2022/10/29 12:37:30;;;;;;;5.13;3.30;;;20.50;99.90;;;;;;5071889;28;20016;-41
2022/10/29 12:40:01;;;;;;;6.32;3.35;;;20.50;99.90;;;;;;5067470;28;20471;-39
2022/10/29 12:42:30;;;;;;;4.65;3.35;;;20.50;99.90;;;;;;5067165;28;20357;-39
2022/10/29 12:45:02;;;;;;;5.93;3.40;;;20.50;99.90;;;;;;5068113;28;20028;-40
2022/10/29 12:47:43;;;;;;;6.78;3.22;;;20.60;99.90;;;;;;5070533;28;20808;-40
2022/10/29 12:50:31;;;;;;;6.10;3.37;;;20.70;99.90;;;;;;5068893;28;20028;-40
2022/10/29 12:53:33;;;;;;;4.63;3.10;;;20.80;99.90;;;;;;5071209;28;20032;-40
2022/10/29 12:55:58;;;;;;;5.38;3.30;;;20.90;99.90;;;;;;5084180;28;20027;-41
2022/10/29 12:58:44;;;;;;;7.85;3.67;;;20.90;99.90;;;;;;5076011;28;20032;-41
2022/10/29 13:01:27;;;;;;;4.95;3.40;;;21.00;99.90;;;;;;5083410;28;20057;-40